Time;durP1;ratioP1;P1;durP2;ratioP2;P2;SDS_P1;SDS_P2;PMS_P1;PMS_P2;Temp;Humidity;BMP_temperature;BMP_pressure;BME280_temperature;BME280_humidity;BME280_pressure;Samples;Min_cycle;Max_cycle;Signal;HPM_P1;HPM_P2
2021/12/02 00:00:52;;;;;;;;;;;23.20;99.90;;;;;;5055733;28;20260;-72
2021/12/02 00:03:19;;;;;;;;;;;23.30;99.90;;;;;;5057110;28;19920;-73
2021/12/02 00:05:46;;;;;;;;;;;23.50;99.90;;;;;;5055589;28;19919;-69
2021/12/02 00:08:13;;;;;;;;;;;23.60;99.90;;;;;;5061316;28;19928;-72
2021/12/02 00:10:41;;;;;;;;;;;23.70;99.90;;;;;;5073599;28;19925;-73
2021/12/02 00:13:09;;;;;;;;;;;23.70;99.90;;;;;;5072725;28;19920;-70
2021/12/02 00:15:47;;;;;;;;;;;23.70;99.90;;;;;;5073633;28;19912;-72
2021/12/02 00:23:33;;;;;;;;;;;23.70;99.90;;;;;;5073320;28;19982;-70
2021/12/02 00:26:01;;;;;;;;;;;23.80;99.90;;;;;;5072903;28;19916;-69
2021/12/02 00:28:28;;;;;;;;;;;23.90;99.90;;;;;;5071937;28;20026;-71
2021/12/02 00:30:55;;;;;;;;;;;24.00;99.90;;;;;;5073303;28;19927;-70
2021/12/02 00:33:25;;;;;;;;;;;24.20;99.90;;;;;;5072690;28;19916;-71
2021/12/02 00:35:52;;;;;;;;;;;24.40;99.90;;;;;;5072971;28;19920;-71
2021/12/02 00:38:23;;;;;;;;;;;24.40;99.90;;;;;;5072475;28;19935;-69
2021/12/02 00:40:50;;;;;;;;;;;24.40;99.90;;;;;;5073007;28;19916;-67
2021/12/02 00:43:17;;;;;;;;;;;24.30;99.90;;;;;;5072421;28;20007;-72
2021/12/02 00:45:44;;;;;;;;;;;24.30;99.90;;;;;;5072953;28;19979;-70
2021/12/02 00:48:12;;;;;;;;;;;24.60;99.90;;;;;;5072192;28;20007;-68
2021/12/02 00:50:40;;;;;;;;;;;25.10;99.90;;;;;;5063799;28;20402;-70
2021/12/02 00:53:07;;;;;;;;;;;26.00;99.90;;;;;;5072270;28;19921;-68
2021/12/02 00:55:38;;;;;;;;;;;26.00;99.90;;;;;;5069967;28;20004;-71
2021/12/02 00:58:05;;;;;;;;;;;26.00;99.90;;;;;;5071409;28;19912;-72
2021/12/02 01:00:33;;;;;;;;;;;26.40;99.90;;;;;;5072438;28;20003;-67
2021/12/02 01:03:01;;;;;;;;;;;26.70;99.90;;;;;;5070942;28;19916;-72
2021/12/02 01:05:29;;;;;;;;;;;27.00;99.90;;;;;;5072185;28;19999;-72
2021/12/02 01:07:55;;;;;;;;;;;27.20;99.90;;;;;;5070743;28;19976;-71
2021/12/02 01:10:22;;;;;;;;;;;27.60;99.90;;;;;;5055422;28;20055;-71
2021/12/02 01:12:49;;;;;;;;;;;27.60;99.90;;;;;;5054508;28;19963;-72
2021/12/02 01:15:16;;;;;;;;;;;27.40;99.90;;;;;;5055237;28;19912;-71
2021/12/02 01:17:43;;;;;;;;;;;27.60;99.90;;;;;;5054482;28;19909;-71
2021/12/02 01:20:10;;;;;;;;;;;27.60;99.90;;;;;;5056525;28;20046;-72
2021/12/02 01:22:38;;;;;;;;;;;27.70;99.90;;;;;;5054574;28;19916;-71
2021/12/02 01:25:08;;;;;;;;;;;27.70;99.90;;;;;;5055698;28;19922;-71
2021/12/02 01:27:36;;;;;;;;;;;27.80;99.90;;;;;;5053970;28;19915;-70
2021/12/02 01:30:06;;;;;;;;;;;27.90;99.90;;;;;;5055316;28;20317;-70
2021/12/02 01:32:36;;;;;;;;;;;27.90;99.90;;;;;;5054107;28;19917;-72
2021/12/02 01:35:04;;;;;;;;;;;28.10;99.90;;;;;;5055516;28;19915;-70
2021/12/02 01:37:31;;;;;;;;;;;28.10;99.90;;;;;;5053977;28;19942;-70
2021/12/02 01:39:58;;;;;;;;;;;27.80;99.90;;;;;;5054935;28;19955;-70
2021/12/02 01:42:27;;;;;;;;;;;27.70;99.90;;;;;;5044704;28;19966;-68
2021/12/02 01:44:55;;;;;;;;;;;27.30;99.90;;;;;;5054567;28;20366;-69
2021/12/02 01:47:24;;;;;;;;;;;26.70;99.90;;;;;;5035899;28;19916;-70
2021/12/02 01:49:53;;;;;;;;;;;26.10;99.90;;;;;;5053661;28;20012;-68
2021/12/02 01:52:21;;;;;;;;;;;25.80;99.90;;;;;;5053998;28;19916;-69
2021/12/02 01:54:48;;;;;;;;;;;25.70;99.90;;;;;;5052860;28;19969;-71
2021/12/02 01:57:26;;;;;;;;;;;25.60;99.90;;;;;;5036593;28;19927;-70
2021/12/02 01:59:56;;;;;;;;;;;25.50;99.90;;;;;;5053842;28;19915;-70
2021/12/02 02:02:23;;;;;;;;;;;25.50;99.90;;;;;;5054026;28;19917;-72
2021/12/02 02:04:51;;;;;;;;;;;25.50;99.90;;;;;;5053672;28;19917;-71
2021/12/02 02:07:18;;;;;;;;;;;25.50;99.90;;;;;;5054446;28;19912;-72
2021/12/02 02:09:45;;;;;;;;;;;25.50;99.90;;;;;;5069381;28;19920;-69
2021/12/02 02:12:13;;;;;;;;;;;25.40;99.90;;;;;;5069978;28;19978;-70
2021/12/02 02:14:41;;;;;;;;;;;25.30;99.90;;;;;;5070888;28;19963;-72
2021/12/02 02:17:16;;;;;;;;;;;25.30;99.90;;;;;;5071125;28;19916;-71
2021/12/02 02:19:42;;;;;;;;;;;25.40;99.90;;;;;;5071042;28;19981;-70
2021/12/02 02:22:09;;;;;;;;;;;25.50;99.90;;;;;;5070015;28;19951;-69
2021/12/02 02:24:36;;;;;;;;;;;25.40;99.90;;;;;;5071078;28;19913;-70
2021/12/02 02:27:04;;;;;;;;;;;25.30;99.90;;;;;;5070712;28;20007;-69
2021/12/02 02:29:30;;;;;;;;;;;25.30;99.90;;;;;;5071153;28;20001;-69
2021/12/02 02:31:57;;;;;;;;;;;25.30;99.90;;;;;;5070257;28;20023;-68
2021/12/02 02:34:25;;;;;;;;;;;25.30;99.90;;;;;;5071319;28;20003;-69
2021/12/02 02:36:54;;;;;;;;;;;25.10;99.90;;;;;;5070549;28;20223;-70
2021/12/02 02:39:21;;;;;;;;;;;25.00;99.90;;;;;;5070945;28;19954;-71
2021/12/02 02:41:56;;;;;;;;;;;25.00;99.90;;;;;;5070295;28;19931;-71
2021/12/02 02:44:23;;;;;;;;;;;25.00;99.90;;;;;;5071095;28;19920;-71
2021/12/02 02:46:50;;;;;;;;;;;25.00;99.90;;;;;;5070631;28;19916;-72
2021/12/02 02:49:16;;;;;;;;;;;25.20;99.90;;;;;;5071217;28;19920;-71
2021/12/02 02:51:44;;;;;;;;;;;25.20;99.90;;;;;;5070507;28;19925;-68
2021/12/02 02:54:12;;;;;;;;;;;25.10;99.90;;;;;;5070514;28;20313;-68
2021/12/02 02:56:45;;;;;;;;;;;25.10;99.90;;;;;;5070288;28;19929;-68
2021/12/02 03:01:49;;;;;;;;;;;25.00;99.90;;;;;;5070336;28;19916;-69
2021/12/02 03:07:07;;;;;;;;;;;25.10;99.90;;;;;;5070270;28;20011;-67
2021/12/02 03:14:37;;;;;;;;;;;25.10;99.90;;;;;;5053111;28;20318;-69
2021/12/02 03:17:03;;;;;;;;;;;25.10;99.90;;;;;;5054721;28;19946;-68
2021/12/02 03:19:30;;;;;;;;;;;25.10;99.90;;;;;;5054298;28;19952;-69
2021/12/02 03:21:57;;;;;;;;;;;25.00;99.90;;;;;;5058454;28;19987;-68
2021/12/02 03:24:24;;;;;;;;;;;25.00;99.90;;;;;;5056715;28;19913;-67
2021/12/02 03:26:51;;;;;;;;;;;25.00;99.90;;;;;;5057570;28;19913;-70
2021/12/02 03:29:18;;;;;;;;;;;25.10;99.90;;;;;;5056459;28;19923;-68
2021/12/02 03:31:45;;;;;;;;;;;25.10;99.90;;;;;;5056502;28;19933;-71
2021/12/02 03:34:11;;;;;;;;;;;24.70;99.90;;;;;;5064574;28;19995;-71
2021/12/02 03:36:39;;;;;;;;;;;24.70;99.90;;;;;;5055989;28;20007;-69
2021/12/02 03:39:07;;;;;;;;;;;24.80;99.90;;;;;;5057285;28;20402;-70
2021/12/02 03:41:34;;;;;;;;;;;24.70;99.90;;;;;;5056143;28;20367;-72
2021/12/02 03:44:00;;;;;;;;;;;24.80;99.90;;;;;;5055920;28;19917;-71
2021/12/02 03:46:27;;;;;;;;;;;24.80;99.90;;;;;;5056213;28;19959;-71
2021/12/02 03:48:55;;;;;;;;;;;24.70;99.90;;;;;;5057032;28;19916;-69
2021/12/02 03:51:22;;;;;;;;;;;24.70;99.90;;;;;;5055879;28;20002;-68
2021/12/02 03:53:49;;;;;;;;;;;24.70;99.90;;;;;;5057880;28;19963;-72
2021/12/02 03:56:16;;;;;;;;;;;24.70;99.90;;;;;;5055824;28;19912;-68
2021/12/02 03:58:43;;;;;;;;;;;24.80;99.90;;;;;;5057080;28;19925;-69
2021/12/02 04:01:11;;;;;;;;;;;24.90;99.90;;;;;;5055727;28;19920;-68
2021/12/02 04:03:38;;;;;;;;;;;24.80;99.90;;;;;;5056759;28;19967;-68
2021/12/02 04:06:05;;;;;;;;;;;24.70;99.90;;;;;;5056142;28;20392;-68
2021/12/02 04:11:23;;;;;;;;;;;24.30;99.90;;;;;;5065740;28;19963;-67
2021/12/02 04:16:41;;;;;;;;;;;24.50;99.90;;;;;;5053357;28;19913;-70
2021/12/02 04:19:09;;;;;;;;;;;24.30;99.90;;;;;;5068876;28;19948;-69
2021/12/02 04:21:36;;;;;;;;;;;24.40;99.90;;;;;;5067903;28;20006;-70
2021/12/02 04:24:03;;;;;;;;;;;24.30;99.90;;;;;;5073264;28;19923;-69
2021/12/02 04:26:29;;;;;;;;;;;24.30;99.90;;;;;;5073059;28;19916;-68
2021/12/02 04:28:56;;;;;;;;;;;24.40;99.90;;;;;;5072584;28;19991;-69
2021/12/02 04:31:22;;;;;;;;;;;24.50;99.90;;;;;;5072148;28;19924;-68
2021/12/02 04:33:49;;;;;;;;;;;24.40;99.90;;;;;;5072306;28;19916;-69
2021/12/02 04:36:16;;;;;;;;;;;24.40;99.90;;;;;;5073023;28;19936;-70
2021/12/02 04:38:42;;;;;;;;;;;24.50;99.90;;;;;;5072512;28;19952;-68
2021/12/02 04:41:10;;;;;;;;;;;24.50;99.90;;;;;;5072962;28;19916;-69
2021/12/02 04:43:37;;;;;;;;;;;24.50;99.90;;;;;;5072234;28;19920;-67
2021/12/02 04:46:03;;;;;;;;;;;24.50;99.90;;;;;;5072685;28;20011;-67
2021/12/02 04:48:30;;;;;;;;;;;24.50;99.90;;;;;;5072639;28;19939;-67
2021/12/02 04:50:56;;;;;;;;;;;24.50;99.90;;;;;;5072468;28;19928;-66
2021/12/02 04:53:23;;;;;;;;;;;24.40;99.90;;;;;;5070831;28;19917;-69
2021/12/02 04:55:50;;;;;;;;;;;24.30;99.90;;;;;;5072126;28;19913;-67
2021/12/02 04:58:16;;;;;;;;;;;24.40;99.90;;;;;;5072531;28;19916;-67
2021/12/02 05:00:43;;;;;;;;;;;24.40;99.90;;;;;;5072474;28;19913;-67
2021/12/02 05:03:10;;;;;;;;;;;24.40;99.90;;;;;;5072570;28;19916;-67
2021/12/02 05:05:36;;;;;;;;;;;24.40;99.90;;;;;;5071920;28;19920;-68
2021/12/02 05:08:04;;;;;;;;;;;24.50;99.90;;;;;;5072194;28;19912;-68
2021/12/02 05:10:31;;;;;;;;;;;24.40;99.90;;;;;;5057761;28;19970;-67
2021/12/02 05:12:58;;;;;;;;;;;24.40;99.90;;;;;;5054355;28;19917;-68
2021/12/02 05:15:24;;;;;;;;;;;24.40;99.90;;;;;;5055342;28;19913;-67
2021/12/02 05:17:51;;;;;;;;;;;24.40;99.90;;;;;;5054944;28;20260;-71
2021/12/02 05:20:18;;;;;;;;;;;24.20;99.90;;;;;;5055328;28;20394;-68
2021/12/02 05:22:45;;;;;;;;;;;24.20;99.90;;;;;;5054431;28;19917;-67
2021/12/02 05:25:11;;;;;;;;;;;24.20;99.90;;;;;;5055146;28;20421;-67
2021/12/02 05:27:38;;;;;;;;;;;24.20;99.90;;;;;;5055290;28;19913;-68
2021/12/02 05:30:05;;;;;;;;;;;24.20;99.90;;;;;;5054002;28;19962;-68
2021/12/02 05:32:32;;;;;;;;;;;24.20;99.90;;;;;;5055102;28;19971;-68
2021/12/02 05:34:59;;;;;;;;;;;24.20;99.90;;;;;;5050237;28;19960;-67
2021/12/02 05:37:26;;;;;;;;;;;24.10;99.90;;;;;;5055346;28;19919;-68
2021/12/02 05:39:53;;;;;;;;;;;23.90;99.90;;;;;;5053393;28;19919;-71
2021/12/02 05:42:20;;;;;;;;;;;23.90;99.90;;;;;;5055311;28;19924;-68
2021/12/02 05:44:49;;;;;;;;;;;23.90;99.90;;;;;;5053606;28;20727;-68
2021/12/02 05:47:16;;;;;;;;;;;23.90;99.90;;;;;;5055111;28;20011;-69
2021/12/02 05:49:42;;;;;;;;;;;23.90;99.90;;;;;;5053687;28;19939;-67
2021/12/02 05:52:09;;;;;;;;;;;24.00;99.90;;;;;;5052184;28;19951;-70
2021/12/02 05:54:36;;;;;;;;;;;23.80;99.90;;;;;;5052044;28;19915;-68
2021/12/02 05:57:03;;;;;;;;;;;23.70;99.90;;;;;;5051791;28;20372;-67
2021/12/02 05:59:29;;;;;;;;;;;23.80;99.90;;;;;;5052311;28;19917;-68
2021/12/02 06:01:56;;;;;;;;;;;23.80;99.90;;;;;;5051671;28;19913;-68
2021/12/02 06:04:22;;;;;;;;;;;23.80;99.90;;;;;;5052508;28;20347;-68
2021/12/02 06:06:50;;;;;;;;;;;23.80;99.90;;;;;;5051556;28;20603;-71
2021/12/02 06:09:18;;;;;;;;;;;23.80;99.90;;;;;;5065346;28;19929;-72
2021/12/02 06:11:46;;;;;;;;;;;23.70;99.90;;;;;;5068900;28;20058;-67
2021/12/02 06:14:16;;;;;;;;;;;23.70;99.90;;;;;;5068097;28;21870;-66
2021/12/02 06:16:43;;;;;;;;;;;23.60;99.90;;;;;;5068963;28;20002;-66
2021/12/02 06:19:10;;;;;;;;;;;23.50;99.90;;;;;;5068277;28;19916;-66
2021/12/02 06:21:37;;;;;;;;;;;23.60;99.90;;;;;;5067914;28;19913;-68
2021/12/02 06:24:05;;;;;;;;;;;23.50;99.90;;;;;;5067513;28;20759;-67
2021/12/02 06:26:32;;;;;;;;;;;23.50;99.90;;;;;;5068973;28;19917;-67
2021/12/02 06:28:59;;;;;;;;;;;23.50;99.90;;;;;;5068787;28;20353;-68
2021/12/02 06:31:26;;;;;;;;;;;23.50;99.90;;;;;;5068778;28;20327;-68
2021/12/02 06:33:52;;;;;;;;;;;23.60;99.90;;;;;;5068097;28;19943;-68
2021/12/02 06:36:19;;;;;;;;;;;23.50;99.90;;;;;;5068956;28;19944;-66
2021/12/02 06:38:46;;;;;;;;;;;23.50;99.90;;;;;;5068472;28;19913;-67
2021/12/02 06:41:12;;;;;;;;;;;23.40;99.90;;;;;;5068581;28;19923;-67
2021/12/02 06:43:39;;;;;;;;;;;23.40;99.90;;;;;;5068294;28;19947;-67
2021/12/02 06:46:06;;;;;;;;;;;23.30;99.90;;;;;;5068385;28;19912;-69
2021/12/02 06:48:32;;;;;;;;;;;23.30;99.90;;;;;;5068999;28;19923;-66
2021/12/02 06:50:59;;;;;;;;;;;23.30;99.90;;;;;;5068137;28;19959;-67
2021/12/02 06:53:26;;;;;;;;;;;23.20;99.90;;;;;;5068742;28;19916;-69
2021/12/02 06:55:52;;;;;;;;;;;23.20;99.90;;;;;;5070821;28;20035;-69
2021/12/02 06:58:19;;;;;;;;;;;23.10;99.90;;;;;;5072792;28;19956;-72
2021/12/02 07:00:46;;;;;;;;;;;23.10;99.90;;;;;;5072468;28;19920;-67
2021/12/02 07:03:12;;;;;;;;;;;23.10;99.90;;;;;;5072763;28;19912;-68
2021/12/02 07:05:39;;;;;;;;;;;23.00;99.90;;;;;;5072043;28;20523;-67
2021/12/02 07:08:06;;;;;;;;;;;23.00;99.90;;;;;;5068669;28;19931;-67
2021/12/02 07:10:33;;;;;;;;;;;22.90;99.90;;;;;;5058642;28;19935;-70
2021/12/02 07:13:00;;;;;;;;;;;22.80;99.90;;;;;;5055135;28;19919;-72
2021/12/02 07:15:30;;;;;;;;;;;22.80;99.90;;;;;;5055361;28;19923;-68
2021/12/02 07:17:59;;;;;;;;;;;22.70;99.90;;;;;;5062843;28;19920;-68
2021/12/02 07:20:33;;;;;;;;;;;22.70;99.90;;;;;;5054950;28;19916;-70
2021/12/02 07:23:01;;;;;;;;;;;22.70;99.90;;;;;;5055391;28;19913;-71
2021/12/02 07:25:28;;;;;;;;;;;22.70;99.90;;;;;;5054458;28;19917;-67
2021/12/02 07:27:55;;;;;;;;;;;22.70;99.90;;;;;;5054300;28;19978;-71
2021/12/02 07:30:21;;;;;;;;;;;22.60;99.90;;;;;;5054517;28;19921;-66
2021/12/02 07:32:52;;;;;;;;;;;22.50;99.90;;;;;;5054197;28;19939;-69
2021/12/02 07:35:19;;;;;;;;;;;22.50;99.90;;;;;;5054091;28;19971;-70
2021/12/02 07:37:47;;;;;;;;;;;22.40;99.90;;;;;;5055318;28;19924;-68
2021/12/02 07:40:14;;;;;;;;;;;22.40;99.90;;;;;;5053996;28;19960;-69
2021/12/02 07:42:41;;;;;;;;;;;22.40;99.90;;;;;;5055282;28;19964;-67
2021/12/02 07:45:09;;;;;;;;;;;22.30;99.90;;;;;;5054484;28;19913;-69
2021/12/02 07:47:37;;;;;;;;;;;22.30;99.90;;;;;;5054947;28;19928;-69
2021/12/02 07:50:05;;;;;;;;;;;22.20;99.90;;;;;;5053155;28;20327;-70
2021/12/02 07:52:33;;;;;;;;;;;22.20;99.90;;;;;;5055055;28;19955;-69
2021/12/02 07:55:03;;;;;;;;;;;22.10;99.90;;;;;;5053659;28;19924;-67
2021/12/02 07:57:31;;;;;;;;;;;22.10;99.90;;;;;;5054385;28;19920;-69
2021/12/02 07:59:58;;;;;;;;;;;22.00;99.90;;;;;;5044012;28;20023;-68
2021/12/02 08:02:30;;;;;;;;;;;22.00;99.90;;;;;;5053901;28;19974;-68
2021/12/02 08:04:57;;;;;;;;;;;21.90;99.90;;;;;;5044367;28;19913;-68
2021/12/02 08:07:24;;;;;;;;;;;22.00;99.90;;;;;;5052182;28;20086;-67
2021/12/02 08:09:50;;;;;;;;;;;21.90;99.90;;;;;;5073271;28;19920;-66
2021/12/02 08:12:17;;;;;;;;;;;21.90;99.90;;;;;;5072565;28;19932;-68
2021/12/02 08:14:44;;;;;;;;;;;21.90;99.90;;;;;;5073224;28;20374;-68
2021/12/02 08:17:10;;;;;;;;;;;21.90;99.90;;;;;;5072885;28;19958;-69
2021/12/02 08:19:37;;;;;;;;;;;21.90;99.90;;;;;;5073049;28;19920;-68
2021/12/02 08:22:04;;;;;;;;;;;21.80;99.90;;;;;;5073079;28;20420;-68
2021/12/02 08:24:30;;;;;;;;;;;21.80;99.90;;;;;;5072596;28;19913;-68
2021/12/02 08:26:57;;;;;;;;;;;21.80;99.90;;;;;;5073193;28;19912;-68
2021/12/02 08:29:25;;;;;;;;;;;21.70;99.90;;;;;;5072536;28;19921;-72
2021/12/02 08:31:52;;;;;;;;;;;21.70;99.90;;;;;;5072571;28;19924;-68
2021/12/02 08:34:19;;;;;;;;;;;21.60;99.90;;;;;;5072706;28;19916;-68
2021/12/02 08:36:54;;;;;;;;;;;21.60;99.90;;;;;;5073050;28;20382;-69
2021/12/02 08:39:27;;;;;;;;;;;21.60;99.90;;;;;;5072479;28;19938;-68
2021/12/02 08:41:54;;;;;;;;;;;21.50;99.90;;;;;;5072651;28;20388;-68
2021/12/02 08:44:25;;;;;;;;;;;21.50;99.90;;;;;;5072499;28;19941;-68
2021/12/02 08:46:53;;;;;;;;;;;21.50;99.90;;;;;;5073220;28;19919;-69
2021/12/02 08:49:21;;;;;;;;;;;21.50;99.90;;;;;;5072261;28;19920;-69
2021/12/02 08:51:48;;;;;;;;;;;21.50;99.90;;;;;;5072874;28;19921;-66
2021/12/02 08:54:15;;;;;;;;;;;21.50;99.90;;;;;;5072148;28;19920;-68
2021/12/02 08:56:42;;;;;;;;;;;21.40;99.90;;;;;;5072636;28;19974;-70
2021/12/02 08:59:08;;;;;;;;;;;21.40;99.90;;;;;;5072336;28;19932;-69
2021/12/02 09:01:36;;;;;;;;;;;21.40;99.90;;;;;;5072717;28;19991;-69
2021/12/02 09:04:03;;;;;;;;;;;21.40;99.90;;;;;;5072121;28;19956;-70
2021/12/02 09:06:30;;;;;;;;;;;21.40;99.90;;;;;;5072414;28;19916;-67
2021/12/02 09:08:58;;;;;;;;;;;21.30;99.90;;;;;;5068584;28;19974;-66
2021/12/02 09:11:29;;;;;;;;;;;21.30;99.90;;;;;;5072053;28;19950;-67
2021/12/02 09:13:58;;;;;;;;;;;21.30;99.90;;;;;;5072188;28;19913;-67
2021/12/02 09:16:25;;;;;;;;;;;21.30;99.90;;;;;;5070500;28;19916;-68
2021/12/02 09:18:53;;;;;;;;;;;21.30;99.90;;;;;;5071943;28;19926;-67
2021/12/02 09:21:20;;;;;;;;;;;21.30;99.90;;;;;;5071935;28;19919;-67
2021/12/02 09:23:47;;;;;;;;;;;21.20;99.90;;;;;;5071904;28;19920;-67
2021/12/02 09:26:14;;;;;;;;;;;21.20;99.90;;;;;;5071453;28;20038;-66
2021/12/02 09:28:40;;;;;;;;;;;21.30;99.90;;;;;;5072253;28;19913;-67
2021/12/02 09:31:07;;;;;;;;;;;21.20;99.90;;;;;;5071399;28;20656;-70
2021/12/02 09:33:34;;;;;;;;;;;21.20;99.90;;;;;;5072096;28;19912;-70
2021/12/02 09:36:01;;;;;;;;;;;21.20;99.90;;;;;;5071428;28;19987;-70
2021/12/02 09:38:28;;;;;;;;;;;21.20;99.90;;;;;;5071993;28;19917;-67
2021/12/02 09:40:54;;;;;;;;;;;21.10;99.90;;;;;;5071323;28;19959;-67
2021/12/02 09:43:21;;;;;;;;;;;21.10;99.90;;;;;;5071865;28;19912;-69
2021/12/02 09:45:48;;;;;;;;;;;21.10;99.90;;;;;;5071283;28;19999;-68
2021/12/02 09:48:14;;;;;;;;;;;21.10;99.90;;;;;;5071378;28;19916;-69
2021/12/02 09:50:57;;;;;;;;;;;21.10;99.90;;;;;;5069999;28;20292;-66
2021/12/02 09:53:26;;;;;;;;;;;21.10;99.90;;;;;;5071789;28;19951;-66
2021/12/02 09:56:14;;;;;;;;;;;21.10;99.90;;;;;;5070910;28;20367;-68
2021/12/02 09:58:41;;;;;;;;;;;21.10;99.90;;;;;;5063051;28;20373;-69
2021/12/02 10:01:10;;;;;;;;;;;21.00;99.90;;;;;;5071012;28;19918;-70
2021/12/02 10:03:46;;;;;;;;;;;21.00;99.90;;;;;;5071751;28;20003;-67
2021/12/02 10:06:16;;;;;;;;;;;21.00;99.90;;;;;;5070918;28;19912;-67
2021/12/02 10:08:55;;;;;;;;;;;21.00;99.90;;;;;;5070015;28;19927;-68
2021/12/02 10:11:34;;;;;;;;;;;21.00;99.90;;;;;;5070608;28;19932;-71
2021/12/02 10:14:15;;;;;;;;;;;21.00;99.90;;;;;;5070975;28;20371;-68
2021/12/02 10:16:45;;;;;;;;;;;21.00;99.90;;;;;;5068096;28;19977;-67
2021/12/02 10:19:16;;;;;;;;;;;20.90;99.90;;;;;;5070030;28;20287;-68
2021/12/02 10:21:46;;;;;;;;;;;21.00;99.90;;;;;;5071218;28;19913;-73
2021/12/02 10:24:14;;;;;;;;;;;21.00;99.90;;;;;;5070714;28;19919;-71
2021/12/02 10:26:41;;;;;;;;;;;20.90;99.90;;;;;;5070956;28;19954;-71
2021/12/02 10:29:37;;;;;;;;;;;20.90;99.90;;;;;;5070392;28;20046;-71
2021/12/02 10:32:06;;;;;;;;;;;20.90;99.90;;;;;;5056652;28;19969;-73
2021/12/02 10:34:45;;;;;;;;;;;20.90;99.90;;;;;;5070573;28;19916;-71
2021/12/02 10:37:11;;;;;;;;;;;20.90;99.90;;;;;;5071186;28;19913;-71
2021/12/02 10:39:38;;;;;;;;;;;20.90;99.90;;;;;;5070485;28;19928;-71
2021/12/02 10:42:06;;;;;;;;;;;20.90;99.90;;;;;;5070861;28;20366;-72
2021/12/02 10:44:34;;;;;;;;;;;20.90;99.90;;;;;;5070567;28;19968;-70
2021/12/02 10:47:08;;;;;;;;;;;20.90;99.90;;;;;;5070458;28;19956;-73
2021/12/02 10:49:43;;;;;;;;;;;20.90;99.90;;;;;;5067405;28;19917;-72
2021/12/02 10:52:26;;;;;;;;;;;20.90;99.90;;;;;;5069361;28;19956;-70
2021/12/02 10:55:01;;;;;;;;;;;20.90;99.90;;;;;;5070245;28;19916;-72
2021/12/02 10:57:28;;;;;;;;;;;20.80;99.90;;;;;;5070808;28;19923;-72
2021/12/02 10:59:59;;;;;;;;;;;20.90;99.90;;;;;;5070359;28;20003;-71
2021/12/02 11:02:26;;;;;;;;;;;20.90;99.90;;;;;;5070285;28;19957;-69
2021/12/02 11:04:56;;;;;;;;;;;20.80;99.90;;;;;;5070208;28;19919;-71
2021/12/02 11:07:36;;;;;;;;;;;20.80;99.90;;;;;;5070901;28;19916;-71
2021/12/02 11:10:04;;;;;;;;;;;20.80;99.90;;;;;;5070550;28;20264;-71
2021/12/02 11:12:32;;;;;;;;;;;20.80;99.90;;;;;;5070559;28;20371;-71
2021/12/02 11:15:01;;;;;;;;;;;20.80;99.90;;;;;;5070483;28;19927;-71
2021/12/02 11:17:33;;;;;;;;;;;20.80;99.90;;;;;;5070259;28;19912;-73
2021/12/02 11:20:01;;;;;;;;;;;20.80;99.90;;;;;;5069791;28;19969;-70
2021/12/02 11:22:29;;;;;;;;;;;20.80;99.90;;;;;;5070747;28;19992;-68
2021/12/02 11:24:55;;;;;;;;;;;20.70;99.90;;;;;;5069966;28;19941;-70
2021/12/02 11:27:24;;;;;;;;;;;20.70;99.90;;;;;;5070746;28;19916;-70
2021/12/02 11:29:55;;;;;;;;;;;20.70;99.90;;;;;;5070039;28;19916;-70
2021/12/02 11:32:27;;;;;;;;;;;20.70;99.90;;;;;;5070702;28;19996;-67
2021/12/02 11:35:03;;;;;;;;;;;20.70;99.90;;;;;;5070050;28;19912;-70
2021/12/02 11:37:30;;;;;;;;;;;20.70;99.90;;;;;;5070642;28;19920;-72
2021/12/02 11:39:58;;;;;;;;;;;20.80;99.90;;;;;;5069689;28;20252;-71
2021/12/02 11:42:25;;;;;;;;;;;20.70;99.90;;;;;;5074272;28;19912;-71
2021/12/02 11:44:52;;;;;;;;;;;20.70;99.90;;;;;;5073690;28;20406;-70
2021/12/02 11:47:19;;;;;;;;;;;20.70;99.90;;;;;;5073311;28;19919;-69
2021/12/02 11:49:47;;;;;;;;;;;20.70;99.90;;;;;;5069746;28;19923;-69
2021/12/02 11:52:14;;;;;;;;;;;20.70;99.90;;;;;;5073987;28;20440;-68
2021/12/02 11:54:40;;;;;;;;;;;20.70;99.90;;;;;;5073348;28;19952;-71
2021/12/02 11:57:07;;;;;;;;;;;20.70;99.90;;;;;;5074048;28;19913;-71
2021/12/02 11:59:34;;;;;;;;;;;20.60;99.90;;;;;;5073536;28;19917;-72
2021/12/02 12:02:01;;;;;;;;;;;20.60;99.90;;;;;;5072438;28;20415;-67
2021/12/02 12:04:28;;;;;;;;;;;20.60;99.90;;;;;;5073549;28;20370;-71
2021/12/02 12:07:07;;;;;;;;;;;20.60;99.90;;;;;;5073768;28;19913;-69
2021/12/02 12:09:34;;;;;;;;;;;20.60;99.90;;;;;;5060309;28;19927;-72
2021/12/02 12:12:02;;;;;;;;;;;20.60;99.90;;;;;;5056663;28;20011;-68
2021/12/02 12:14:40;;;;;;;;;;;20.60;99.90;;;;;;5055927;28;19978;-68
2021/12/02 12:17:08;;;;;;;;;;;20.60;99.90;;;;;;5066166;28;19913;-68
2021/12/02 12:19:41;;;;;;;;;;;20.60;99.90;;;;;;5054609;28;20017;-71
2021/12/02 12:22:10;;;;;;;;;;;20.60;99.90;;;;;;5065397;28;20361;-70
2021/12/02 12:24:49;;;;;;;;;;;20.60;99.90;;;;;;5056228;28;19913;-69
2021/12/02 12:27:17;;;;;;;;;;;20.50;99.90;;;;;;5055920;28;19917;-67
2021/12/02 12:29:47;;;;;;;;;;;20.50;99.90;;;;;;5056796;28;19921;-70
2021/12/02 12:32:23;;;;;;;;;;;20.50;99.90;;;;;;5055328;28;19921;-69
2021/12/02 12:34:54;;;;;;;;;;;20.50;99.90;;;;;;5056819;28;19916;-68
2021/12/02 12:40:11;;;;;;;;;;;20.60;99.90;;;;;;5056416;28;19946;-71
2021/12/02 12:42:38;;;;;;;;;;;20.50;99.90;;;;;;5055286;28;19912;-71
2021/12/02 12:45:07;;;;;;;;;;;20.60;99.90;;;;;;5056579;28;20342;-69
2021/12/02 12:47:44;;;;;;;;;;;20.60;99.90;;;;;;5063035;28;19939;-69
2021/12/02 12:50:20;;;;;;;;;;;20.60;99.90;;;;;;5057032;28;19917;-71
2021/12/02 12:52:52;;;;;;;;;;;20.60;99.90;;;;;;5054478;28;20016;-69
2021/12/02 12:55:20;;;;;;;;;;;20.60;99.90;;;;;;5068511;28;19938;-72
2021/12/02 12:58:05;;;;;;;;;;;20.60;99.90;;;;;;5070506;28;19912;-73
2021/12/02 13:00:36;;;;;;;;;;;20.60;99.90;;;;;;5068629;28;20367;-73
2021/12/02 13:03:15;;;;;;;;;;;20.60;99.90;;;;;;5069534;28;19912;-72
2021/12/02 13:05:49;;;;;;;;;;;20.60;99.90;;;;;;5070597;28;19912;-67
2021/12/02 13:08:17;;;;;;;;;;;20.60;99.90;;;;;;5067691;28;20517;-73
2021/12/02 13:10:55;;;;;;;;;;;20.60;99.90;;;;;;5070390;28;20279;-70
2021/12/02 13:13:32;;;;;;;;;;;20.60;99.90;;;;;;5067906;28;20006;-72
2021/12/02 13:16:28;;;;;;;;;;;20.60;99.90;;;;;;5061823;28;19958;-71
2021/12/02 13:18:57;;;;;;;;;;;20.60;99.90;;;;;;5068757;28;19947;-72
2021/12/02 13:21:30;;;;;;;;;;;20.60;99.90;;;;;;5069073;28;19918;-70
2021/12/02 13:24:00;;;;;;;;;;;20.60;99.90;;;;;;5064517;28;19919;-70
2021/12/02 13:26:27;;;;;;;;;;;20.60;99.90;;;;;;5064730;28;19919;-72
2021/12/02 13:28:57;;;;;;;;;;;20.60;99.90;;;;;;5068283;28;19923;-70
2021/12/02 13:31:25;;;;;;;;;;;20.60;99.90;;;;;;5059296;28;19924;-72
2021/12/02 13:34:05;;;;;;;;;;;20.50;99.90;;;;;;5059596;28;19912;-72
2021/12/02 13:36:33;;;;;;;;;;;20.40;99.90;;;;;;5068172;28;20294;-70
2021/12/02 13:39:02;;;;;;;;;;;20.40;99.90;;;;;;5069410;28;20016;-70
2021/12/02 13:41:28;;;;;;;;;;;20.40;99.90;;;;;;5068597;28;19919;-71
2021/12/02 13:44:03;;;;;;;;;;;20.40;99.90;;;;;;5049482;28;20321;-72
2021/12/02 13:46:31;;;;;;;;;;;20.40;99.90;;;;;;5068133;28;20275;-69
2021/12/02 13:48:59;;;;;;;;;;;20.50;99.90;;;;;;5068949;28;19948;-71
2021/12/02 13:54:19;;;;;;;;;;;20.40;99.90;;;;;;5052778;28;19919;-70
2021/12/02 13:56:45;;;;;;;;;;;20.40;99.90;;;;;;5067017;28;19919;-72
2021/12/02 13:59:15;;;;;;;;;;;20.40;99.90;;;;;;5069753;28;19917;-72
2021/12/02 14:01:57;;;;;;;;;;;20.40;99.90;;;;;;5066925;28;20295;-69
2021/12/02 14:04:25;;;;;;;;;;;20.40;99.90;;;;;;5068590;28;19913;-69
2021/12/02 14:07:10;;;;;;;;;;;20.40;99.90;;;;;;5066984;28;20007;-69
2021/12/02 14:09:46;;;;;;;;;;;20.30;99.90;;;;;;5069113;28;20003;-72
2021/12/02 14:12:13;;;;;;;;;;;20.30;99.90;;;;;;5067781;28;19964;-69
2021/12/02 14:15:00;;;;;;;;;;;20.30;99.90;;;;;;5067616;28;19916;-71
2021/12/02 14:17:27;;;;;;;;;;;20.20;99.90;;;;;;5068772;28;19917;-73
2021/12/02 14:20:03;;;;;;;;;;;20.20;99.90;;;;;;5057813;28;20479;-72
2021/12/02 14:22:31;;;;;;;;;;;20.10;99.90;;;;;;5048898;28;19917;-71
2021/12/02 14:24:58;;;;;;;;;;;20.20;99.90;;;;;;5067485;28;19920;-72
2021/12/02 14:27:24;;;;;;;;;;;20.20;99.90;;;;;;5068746;28;19912;-69
2021/12/02 14:30:11;;;;;;;;;;;20.20;99.90;;;;;;5068146;28;19919;-68
2021/12/02 14:32:39;;;;;;;;;;;20.20;99.90;;;;;;5050448;28;19920;-68
2021/12/02 14:35:07;;;;;;;;;;;20.20;99.90;;;;;;5066509;28;19920;-69
2021/12/02 14:37:33;;;;;;;;;;;20.20;99.90;;;;;;5069148;28;19993;-68
2021/12/02 14:40:00;;;;;;;;;;;20.20;99.90;;;;;;5067135;28;20572;-68
2021/12/02 14:42:27;;;;;;;;;;;20.20;99.90;;;;;;5063748;28;19940;-68
2021/12/02 14:44:53;;;;;;;;;;;20.10;99.90;;;;;;5054208;28;19913;-68
2021/12/02 14:47:20;;;;;;;;;;;20.20;99.90;;;;;;5063997;28;19995;-69
2021/12/02 14:49:49;;;;;;;;;;;20.10;99.90;;;;;;5053115;28;20276;-68
2021/12/02 14:52:29;;;;;;;;;;;20.00;99.90;;;;;;5054066;28;19928;-69